Time;durP1;ratioP1;P1;durP2;ratioP2;P2;SDS_P1;SDS_P2;PMS_P1;PMS_P2;Temp;Humidity;BMP_temperature;BMP_pressure;BME280_temperature;BME280_humidity;BME280_pressure;Samples;Min_cycle;Max_cycle;Signal;HPM_P1;HPM_P2
2022/09/15 00:01:24;;;;;;;2.72;1.90;;;;;;;;;;5007714;28;20485;-66
2022/09/15 00:03:50;;;;;;;3.25;1.98;;;;;;;;;;5006701;28;20501;-67
2022/09/15 00:06:16;;;;;;;4.28;2.17;;;;;;;;;;4972760;28;20420;-67
2022/09/15 00:08:41;;;;;;;3.00;2.00;;;;;;;;;;5006679;28;20021;-67
2022/09/15 00:11:09;;;;;;;4.25;2.05;;;;;;;;;;5007905;28;20478;-67
2022/09/15 00:13:36;;;;;;;10.68;2.53;;;;;;;;;;5011535;28;20428;-67
2022/09/15 00:16:02;;;;;;;4.78;2.38;;;;;;;;;;5010967;28;20129;-68
2022/09/15 00:18:28;;;;;;;2.78;1.90;;;;;;;;;;4992930;28;20370;-68
2022/09/15 00:20:53;;;;;;;3.58;2.45;;;;;;;;;;4992727;28;20367;-67
2022/09/15 00:23:18;;;;;;;2.97;1.70;;;;;;;;;;5010009;28;20443;-67
2022/09/15 00:25:46;;;;;;;3.85;2.00;;;;;;;;;;5010119;28;20432;-67
2022/09/15 00:28:13;;;;;;;3.13;1.92;;;;;;;;;;5010055;28;20427;-67
2022/09/15 00:30:43;;;;;;;4.30;2.90;;;;;;;;;;5011561;28;20492;-67
2022/09/15 00:33:08;;;;;;;3.20;2.28;;;;;;;;;;5010360;28;20363;-67
2022/09/15 00:35:41;;;;;;;5.05;3.13;;;;;;;;;;5009832;28;20417;-67
2022/09/15 00:38:07;;;;;;;4.32;2.72;;;;;;;;;;4992860;28;20434;-68
2022/09/15 00:40:33;;;;;;;4.07;2.38;;;;;;;;;;4991744;28;20418;-67
2022/09/15 00:42:58;;;;;;;4.93;2.55;;;;;;;;;;4991878;28;20431;-67
2022/09/15 00:45:24;;;;;;;4.35;2.83;;;;;;;;;;5010002;28;20382;-67
2022/09/15 00:47:50;;;;;;;5.28;2.72;;;;;;;;;;5009640;28;20028;-67
2022/09/15 00:50:17;;;;;;;4.93;2.70;;;;;;;;;;5009646;28;20375;-67
2022/09/15 00:52:55;;;;;;;3.60;2.28;;;;;;;;;;4991570;28;20028;-67
2022/09/15 00:55:33;;;;;;;4.30;2.60;;;;;;;;;;4975225;28;20370;-67
2022/09/15 00:58:11;;;;;;;5.20;2.80;;;;;;;;;;4991515;28;20421;-67
2022/09/15 01:00:42;;;;;;;4.22;2.47;;;;;;;;;;4991800;28;20721;-67
2022/09/15 01:03:08;;;;;;;4.80;3.33;;;;;;;;;;5015736;28;20450;-67
2022/09/15 01:05:37;;;;;;;4.13;2.25;;;;;;;;;;5011085;28;20443;-67
2022/09/15 01:08:04;;;;;;;;;;;;;;;;;;5030751;28;20512;-67
2022/09/15 01:10:36;;;;;;;5.57;2.78;;;;;;;;;;5011104;28;20357;-67
2022/09/15 01:13:05;;;;;;;5.60;3.35;;;;;;;;;;5029471;28;20024;-67
2022/09/15 01:15:51;;;;;;;3.85;2.75;;;;;;;;;;5028914;28;20374;-67
2022/09/15 01:18:26;;;;;;;4.40;3.00;;;;;;;;;;5029485;28;20468;-67
2022/09/15 01:21:03;;;;;;;4.82;3.13;;;;;;;;;;5029467;28;20470;-67
2022/09/15 01:23:47;;;;;;;4.60;3.20;;;;;;;;;;5010609;28;20343;-67
2022/09/15 01:26:15;;;;;;;5.03;2.85;;;;;;;;;;5029025;28;20354;-68
2022/09/15 01:29:05;;;;;;;5.15;2.60;;;;;;;;;;5030207;28;20031;-67
2022/09/15 01:34:32;;;;;;;5.07;3.10;;;;;;;;;;5013390;28;20169;-67
2022/09/15 01:37:13;;;;;;;4.78;2.85;;;;;;;;;;5010615;28;20035;-67
2022/09/15 01:39:40;;;;;;;6.13;3.25;;;;;;;;;;5011195;28;20043;-67
2022/09/15 01:42:09;;;;;;;5.45;2.67;;;;;;;;;;5011078;28;20435;-68
2022/09/15 01:44:57;;;;;;;5.13;2.92;;;;;;;;;;5010858;28;20438;-67
2022/09/15 01:47:24;;;;;;;5.45;3.05;;;;;;;;;;5010596;28;20515;-68
2022/09/15 01:50:05;;;;;;;4.43;3.05;;;;;;;;;;5010936;28;20446;-67
2022/09/15 01:52:30;;;;;;;5.35;3.70;;;;;;;;;;5010276;28;20361;-67
2022/09/15 01:54:59;;;;;;;4.80;2.60;;;;;;;;;;4998384;28;20409;-67
2022/09/15 01:57:26;;;;;;;7.93;4.07;;;;;;;;;;5010220;28;20439;-67
2022/09/15 01:59:54;;;;;;;6.93;3.63;;;;;;;;;;5028413;28;20438;-67
2022/09/15 02:02:32;;;;;;;4.45;3.50;;;;;;;;;;5030076;28;20462;-67
2022/09/15 02:05:29;;;;;;;5.13;3.28;;;;;;;;;;5028528;28;20457;-67
2022/09/15 02:08:05;;;;;;;6.22;3.80;;;;;;;;;;5010479;28;20454;-68
2022/09/15 02:10:50;;;;;;;7.30;3.40;;;;;;;;;;5010356;28;20489;-68
2022/09/15 02:13:29;;;;;;;4.65;3.28;;;;;;;;;;5027685;28;20499;-68
2022/09/15 02:15:56;;;;;;;4.63;3.03;;;;;;;;;;4827027;28;5001522;-67
2022/09/15 02:19:14;;;;;;;5.18;2.85;;;;;;;;;;4987266;28;20541;-67
2022/09/15 02:21:52;;;;;;;4.90;2.95;;;;;;;;;;4983234;28;20437;-67
2022/09/15 02:24:22;;;;;;;6.85;3.08;;;;;;;;;;5027869;28;20482;-68
2022/09/15 02:26:48;;;;;;;5.68;3.72;;;;;;;;;;5029902;28;20426;-67
2022/09/15 02:29:16;;;;;;;4.38;3.03;;;;;;;;;;5009663;28;20339;-68
2022/09/15 02:31:43;;;;;;;7.30;4.37;;;;;;;;;;5009647;28;20023;-67
2022/09/15 02:34:20;;;;;;;4.60;3.47;;;;;;;;;;5008658;28;20721;-68
2022/09/15 02:36:47;;;;;;;5.97;4.28;;;;;;;;;;5027799;28;20375;-67
2022/09/15 02:39:16;;;;;;;4.47;3.42;;;;;;;;;;5009415;28;20454;-68
2022/09/15 02:41:41;;;;;;;;;;;;;;;;;;5009637;28;20447;-68
2022/09/15 02:44:08;;;;;;;7.33;4.27;;;;;;;;;;5029048;28;20254;-68
2022/09/15 02:46:33;;;;;;;7.00;4.38;;;;;;;;;;5009609;28;20289;-67
2022/09/15 02:48:59;;;;;;;11.95;4.38;;;;;;;;;;5027482;28;20028;-67
2022/09/15 02:51:24;;;;;;;7.05;4.60;;;;;;;;;;5027425;28;20311;-67
2022/09/15 02:53:50;;;;;;;5.75;4.32;;;;;;;;;;5027506;28;20511;-67
2022/09/15 02:56:15;;;;;;;7.43;3.47;;;;;;;;;;4992591;28;20323;-68
2022/09/15 02:58:42;;;;;;;5.53;4.05;;;;;;;;;;5009685;28;20390;-67
2022/09/15 03:01:11;;;;;;;6.60;3.83;;;;;;;;;;5027158;28;20378;-67
2022/09/15 03:03:36;;;;;;;6.28;3.80;;;;;;;;;;5009485;28;20423;-68
2022/09/15 03:06:17;;;;;;;7.53;4.60;;;;;;;;;;5028747;28;20035;-68
2022/09/15 03:08:57;;;;;;;5.88;4.00;;;;;;;;;;5009778;28;20361;-68
2022/09/15 03:11:25;;;;;;;5.85;3.67;;;;;;;;;;5009098;28;20347;-68
2022/09/15 03:13:55;;;;;;;8.05;4.63;;;;;;;;;;5003006;28;20363;-67
2022/09/15 03:16:21;;;;;;;6.20;4.07;;;;;;;;;;5007837;28;20366;-68
2022/09/15 03:18:47;;;;;;;6.63;4.28;;;;;;;;;;5008740;28;20032;-68
2022/09/15 03:21:13;;;;;;;6.72;4.00;;;;;;;;;;4990181;28;20047;-67
2022/09/15 03:23:40;;;;;;;5.38;3.42;;;;;;;;;;5009024;28;20416;-68
2022/09/15 03:26:07;;;;;;;6.07;3.95;;;;;;;;;;5007635;28;20028;-68
2022/09/15 03:28:33;;;;;;;5.15;3.83;;;;;;;;;;4989171;28;20343;-67
2022/09/15 03:30:59;;;;;;;5.57;3.72;;;;;;;;;;4989751;28;20561;-68
2022/09/15 03:33:24;;;;;;;4.72;3.28;;;;;;;;;;4988923;28;20439;-68
2022/09/15 03:35:50;;;;;;;6.65;4.15;;;;;;;;;;5007155;28;20407;-67
2022/09/15 03:38:16;;;;;;;5.45;3.63;;;;;;;;;;5007109;28;20410;-67
2022/09/15 03:40:42;;;;;;;7.13;3.50;;;;;;;;;;5006863;28;20394;-68
2022/09/15 03:43:08;;;;;;;6.47;4.63;;;;;;;;;;5006916;28;20424;-67
2022/09/15 03:45:36;;;;;;;7.75;3.80;;;;;;;;;;5009221;28;20167;-68
2022/09/15 03:48:02;;;;;;;5.13;3.75;;;;;;;;;;5010784;28;20478;-68
2022/09/15 03:50:27;;;;;;;4.93;3.28;;;;;;;;;;4993676;28;20495;-68
2022/09/15 03:52:53;;;;;;;5.55;3.08;;;;;;;;;;4993386;28;20522;-68
2022/09/15 03:55:18;;;;;;;5.10;3.60;;;;;;;;;;5010807;28;20443;-68
2022/09/15 03:57:43;;;;;;;6.68;3.72;;;;;;;;;;5010952;28;20348;-68
2022/09/15 04:00:10;;;;;;;6.72;3.03;;;;;;;;;;5010758;28;20527;-68
2022/09/15 04:02:36;;;;;;;5.05;3.38;;;;;;;;;;4993198;28;20427;-68
2022/09/15 04:05:01;;;;;;;5.47;3.22;;;;;;;;;;5010500;28;20399;-68
2022/09/15 04:07:26;;;;;;;5.47;3.78;;;;;;;;;;4992476;28;20427;-68
2022/09/15 04:09:52;;;;;;;8.45;3.53;;;;;;;;;;5010411;28;20444;-68
2022/09/15 04:12:17;;;;;;;6.78;2.83;;;;;;;;;;5010239;28;20464;-68
2022/09/15 04:14:42;;;;;;;4.28;3.03;;;;;;;;;;5023346;28;20467;-68
2022/09/15 04:17:09;;;;;;;5.53;2.92;;;;;;;;;;5031260;28;20407;-68
2022/09/15 04:19:35;;;;;;;5.97;3.50;;;;;;;;;;5031662;28;20331;-68
2022/09/15 04:22:00;;;;;;;7.00;3.50;;;;;;;;;;5012303;28;20343;-69
2022/09/15 04:24:25;;;;;;;4.65;3.35;;;;;;;;;;5011679;28;20547;-69
2022/09/15 04:26:51;;;;;;;7.05;3.30;;;;;;;;;;5031771;28;20452;-68
2022/09/15 04:29:16;;;;;;;3.90;2.75;;;;;;;;;;5030486;28;20442;-69
2022/09/15 04:31:42;;;;;;;4.95;3.40;;;;;;;;;;5029998;28;20513;-69
2022/09/15 04:34:08;;;;;;;5.32;3.35;;;;;;;;;;5012676;28;20387;-69
2022/09/15 04:36:33;;;;;;;3.85;3.05;;;;;;;;;;5011882;28;20380;-68
2022/09/15 04:38:59;;;;;;;7.00;3.35;;;;;;;;;;5011646;28;20344;-68
2022/09/15 04:41:25;;;;;;;4.40;3.13;;;;;;;;;;5029938;28;20390;-69
2022/09/15 04:43:50;;;;;;;4.13;2.90;;;;;;;;;;5011388;28;20437;-70
2022/09/15 04:46:17;;;;;;;4.45;3.05;;;;;;;;;;5011693;28;20042;-69
2022/09/15 04:48:44;;;;;;;7.72;3.10;;;;;;;;;;5011685;28;20412;-69
2022/09/15 04:51:12;;;;;;;4.97;3.35;;;;;;;;;;5029872;28;20024;-69
2022/09/15 04:53:37;;;;;;;4.07;2.80;;;;;;;;;;5031303;28;20401;-68
2022/09/15 04:56:08;;;;;;;5.82;3.00;;;;;;;;;;5010912;28;20320;-69
2022/09/15 04:58:38;;;;;;;4.18;3.13;;;;;;;;;;5012213;28;20028;-69
2022/09/15 05:01:17;;;;;;;5.65;3.35;;;;;;;;;;5030119;28;20054;-69
2022/09/15 05:03:45;;;;;;;5.03;2.55;;;;;;;;;;5029580;28;20078;-69
2022/09/15 05:06:13;;;;;;;3.80;2.47;;;;;;;;;;5011697;28;20343;-68
2022/09/15 05:08:38;;;;;;;3.10;2.50;;;;;;;;;;5011591;28;20059;-68
2022/09/15 05:11:10;;;;;;;7.72;3.28;;;;;;;;;;4681523;28;10001902;-69
2022/09/15 05:13:36;;;;;;;5.55;3.08;;;;;;;;;;5010632;28;20340;-69
2022/09/15 05:16:12;;;;;;;3.40;2.60;;;;;;;;;;5012167;28;20434;-69
2022/09/15 05:18:39;;;;;;;4.22;2.60;;;;;;;;;;5029080;28;20464;-69
2022/09/15 05:21:05;;;;;;;8.45;4.10;;;;;;;;;;5011230;28;20378;-69
2022/09/15 05:23:30;;;;;;;2.85;2.25;;;;;;;;;;5030201;28;20443;-68
2022/09/15 05:25:58;;;;;;;3.88;2.50;;;;;;;;;;5031290;28;20478;-68
2022/09/15 05:28:24;;;;;;;2.97;2.38;;;;;;;;;;5028955;28;20504;-68
2022/09/15 05:30:51;;;;;;;3.13;2.13;;;;;;;;;;5010746;28;20398;-69
2022/09/15 05:33:17;;;;;;;3.75;2.33;;;;;;;;;;5029390;28;20534;-68
2022/09/15 05:36:00;;;;;;;2.97;1.95;;;;;;;;;;5028926;28;20443;-69
2022/09/15 05:38:28;;;;;;;2.28;1.70;;;;;;;;;;5028515;28;20051;-69
2022/09/15 05:40:54;;;;;;;2.63;1.83;;;;;;;;;;5010421;28;20478;-69
2022/09/15 05:43:20;;;;;;;4.70;1.60;;;;;;;;;;5010609;28;20354;-69
2022/09/15 05:45:53;;;;;;;2.03;1.42;;;;;;;;;;5028555;28;20320;-71
2022/09/15 05:48:18;;;;;;;1.80;1.20;;;;;;;;;;5011402;28;20331;-69
2022/09/15 05:50:48;;;;;;;1.60;1.13;;;;;;;;;;5028626;28;20348;-68
2022/09/15 05:53:14;;;;;;;3.00;1.50;;;;;;;;;;5029031;28;20396;-69
2022/09/15 05:55:41;;;;;;;3.40;1.23;;;;;;;;;;5028405;28;20085;-69
2022/09/15 05:58:06;;;;;;;2.90;1.33;;;;;;;;;;5028496;28;20398;-69
2022/09/15 06:00:32;;;;;;;0.90;0.90;;;;;;;;;;5028767;28;20047;-70
2022/09/15 06:02:58;;;;;;;1.55;1.25;;;;;;;;;;5028200;28;20024;-70
2022/09/15 06:05:23;;;;;;;2.30;1.58;;;;;;;;;;5028179;28;20051;-70
2022/09/15 06:07:51;;;;;;;2.10;0.93;;;;;;;;;;5028629;28;20315;-70
2022/09/15 06:10:17;;;;;;;1.85;1.40;;;;;;;;;;4999372;28;20531;-71
2022/09/15 06:12:43;;;;;;;2.00;1.38;;;;;;;;;;5028369;28;20518;-70
2022/09/15 06:15:09;;;;;;;1.27;1.00;;;;;;;;;;4993756;28;20067;-71
2022/09/15 06:17:36;;;;;;;2.72;1.50;;;;;;;;;;5008449;28;20424;-70
2022/09/15 06:20:05;;;;;;;3.38;1.17;;;;;;;;;;5008033;28;20050;-71
2022/09/15 06:22:31;;;;;;;1.23;1.02;;;;;;;;;;4990493;28;20417;-70
2022/09/15 06:24:58;;;;;;;2.45;1.40;;;;;;;;;;5008153;28;20435;-71
2022/09/15 06:27:24;;;;;;;1.30;1.00;;;;;;;;;;5008443;28;20439;-70
2022/09/15 06:29:49;;;;;;;1.35;1.25;;;;;;;;;;5007768;28;20504;-71
2022/09/15 06:32:15;;;;;;;1.20;0.93;;;;;;;;;;5007731;28;20029;-70
2022/09/15 06:34:40;;;;;;;3.08;1.02;;;;;;;;;;5007668;28;20355;-71
2022/09/15 06:37:06;;;;;;;0.95;0.88;;;;;;;;;;5007679;28;20395;-72
2022/09/15 06:39:31;;;;;;;1.20;1.02;;;;;;;;;;4990089;28;20046;-72
2022/09/15 06:41:57;;;;;;;2.42;1.60;;;;;;;;;;5008037;28;20424;-71
2022/09/15 06:44:22;;;;;;;1.60;1.00;;;;;;;;;;5007528;28;20390;-70
2022/09/15 06:46:48;;;;;;;1.83;0.93;;;;;;;;;;5007684;28;20347;-71
2022/09/15 06:49:13;;;;;;;1.10;0.88;;;;;;;;;;5007601;28;20339;-70
2022/09/15 06:51:38;;;;;;;1.60;1.38;;;;;;;;;;5008274;28;20371;-71
2022/09/15 06:54:05;;;;;;;1.15;1.02;;;;;;;;;;5007457;28;20400;-71
2022/09/15 06:56:31;;;;;;;1.10;1.00;;;;;;;;;;5007334;28;20060;-71
2022/09/15 06:58:57;;;;;;;1.20;0.90;;;;;;;;;;5007357;28;20107;-71
2022/09/15 07:01:26;;;;;;;1.25;1.10;;;;;;;;;;5007382;28;20321;-71
2022/09/15 07:03:53;;;;;;;1.17;1.05;;;;;;;;;;4989444;28;20510;-72
2022/09/15 07:06:19;;;;;;;1.38;1.17;;;;;;;;;;4989487;28;20402;-71
2022/09/15 07:08:45;;;;;;;1.90;1.10;;;;;;;;;;4989567;28;20413;-71
2022/09/15 07:11:11;;;;;;;1.00;0.90;;;;;;;;;;5007161;28;20056;-71
2022/09/15 07:13:37;;;;;;;1.50;0.90;;;;;;;;;;4992339;28;20508;-71
2022/09/15 07:16:04;;;;;;;2.03;0.90;;;;;;;;;;5009548;28;20427;-71
2022/09/15 07:18:30;;;;;;;0.98;0.80;;;;;;;;;;5027264;28;20462;-71
2022/09/15 07:21:01;;;;;;;5.93;0.95;;;;;;;;;;5027657;28;20435;-70
2022/09/15 07:23:26;;;;;;;2.42;1.15;;;;;;;;;;5009129;28;20399;-70
2022/09/15 07:25:51;;;;;;;1.77;1.02;;;;;;;;;;5009939;28;20153;-70
2022/09/15 07:28:18;;;;;;;1.58;1.10;;;;;;;;;;5009163;28;20451;-70
2022/09/15 07:30:43;;;;;;;3.97;1.08;;;;;;;;;;5027213;28;20519;-71
2022/09/15 07:33:11;;;;;;;2.40;0.98;;;;;;;;;;5010059;28;20459;-71
2022/09/15 07:35:41;;;;;;;1.90;1.07;;;;;;;;;;5027142;28;20493;-70
2022/09/15 07:38:06;;;;;;;3.30;0.93;;;;;;;;;;5009019;28;20609;-70
2022/09/15 07:40:32;;;;;;;1.23;1.00;;;;;;;;;;5008986;28;20028;-70
2022/09/15 07:42:58;;;;;;;1.10;1.00;;;;;;;;;;5027080;28;20470;-70
2022/09/15 07:45:23;;;;;;;1.67;0.90;;;;;;;;;;5008786;28;20457;-70
2022/09/15 07:47:49;;;;;;;2.58;1.30;;;;;;;;;;5027123;28;20017;-70
2022/09/15 07:50:14;;;;;;;0.77;0.68;;;;;;;;;;5009881;28;20389;-70
2022/09/15 07:52:39;;;;;;;0.85;0.82;;;;;;;;;;5027160;28;20374;-71
2022/09/15 07:55:05;;;;;;;1.35;1.05;;;;;;;;;;5008868;28;20339;-70
2022/09/15 07:57:30;;;;;;;1.75;0.95;;;;;;;;;;5028280;28;20500;-69
2022/09/15 07:59:56;;;;;;;1.20;0.95;;;;;;;;;;5026930;28;20050;-70
2022/09/15 08:02:21;;;;;;;1.00;0.90;;;;;;;;;;5008893;28;20531;-70
2022/09/15 08:04:46;;;;;;;1.13;0.85;;;;;;;;;;5027356;28;20028;-70
2022/09/15 08:07:12;;;;;;;2.28;1.13;;;;;;;;;;5026813;28;20451;-70
2022/09/15 08:09:38;;;;;;;1.77;1.25;;;;;;;;;;5009331;28;20446;-70
2022/09/15 08:12:04;;;;;;;1.10;0.82;;;;;;;;;;5026615;28;20535;-71
2022/09/15 08:14:31;;;;;;;1.15;0.93;;;;;;;;;;5026289;28;20475;-69
2022/09/15 08:16:59;;;;;;;1.67;1.10;;;;;;;;;;5009051;28;20350;-70
2022/09/15 08:19:29;;;;;;;2.13;1.35;;;;;;;;;;5009032;28;20518;-70
2022/09/15 08:21:54;;;;;;;2.53;1.10;;;;;;;;;;5026782;28;20374;-70
2022/09/15 08:24:21;;;;;;;0.95;0.85;;;;;;;;;;5026726;28;20028;-70
2022/09/15 08:26:47;;;;;;;1.08;0.90;;;;;;;;;;5008529;28;20466;-70
2022/09/15 08:29:12;;;;;;;0.90;0.75;;;;;;;;;;5026748;28;20335;-70
2022/09/15 08:31:38;;;;;;;1.42;0.93;;;;;;;;;;5027098;28;20512;-69
2022/09/15 08:34:05;;;;;;;1.15;0.90;;;;;;;;;;5030785;28;20312;-70
2022/09/15 08:36:31;;;;;;;1.52;1.10;;;;;;;;;;5012224;28;20023;-70
2022/09/15 08:38:57;;;;;;;1.60;1.20;;;;;;;;;;5011856;28;20466;-70
2022/09/15 08:41:29;;;;;;;1.60;1.45;;;;;;;;;;5030037;28;20442;-70
2022/09/15 08:44:24;;;;;;;3.92;1.13;;;;;;;;;;5029988;28;20460;-70
2022/09/15 08:47:27;;;;;;;2.28;1.70;;;;;;;;;;5029697;28;20486;-70
2022/09/15 08:50:29;;;;;;;2.47;1.83;;;;;;;;;;5029898;28;20101;-69
2022/09/15 08:53:08;;;;;;;3.55;2.05;;;;;;;;;;4995393;28;20039;-70
2022/09/15 08:55:40;;;;;;;2.78;1.98;;;;;;;;;;5029719;28;20435;-70
2022/09/15 08:58:12;;;;;;;2.15;1.63;;;;;;;;;;5011487;28;20431;-70
2022/09/15 09:00:38;;;;;;;1.60;1.25;;;;;;;;;;5031560;28;20426;-69
2022/09/15 09:03:38;;;;;;;4.45;1.52;;;;;;;;;;5011326;28;20505;-69
2022/09/15 09:06:31;;;;;;;1.52;1.25;;;;;;;;;;5029556;28;20414;-70
2022/09/15 09:09:07;;;;;;;1.73;1.15;;;;;;;;;;5029937;28;20489;-69
2022/09/15 09:11:49;;;;;;;1.65;1.20;;;;;;;;;;5011431;28;20042;-70
2022/09/15 09:14:31;;;;;;;1.67;1.20;;;;;;;;;;5002781;28;20364;-70
2022/09/15 09:17:34;;;;;;;1.58;1.23;;;;;;;;;;5009340;28;20455;-69
2022/09/15 09:20:07;;;;;;;3.10;1.10;;;;;;;;;;5009485;28;20037;-69
2022/09/15 09:22:35;;;;;;;1.35;1.17;;;;;;;;;;5009348;28;20389;-69
2022/09/15 09:25:02;;;;;;;2.65;1.67;;;;;;;;;;4991040;28;20467;-69
2022/09/15 09:27:35;;;;;;;1.63;1.20;;;;;;;;;;4991268;28;20315;-69
2022/09/15 09:30:14;;;;;;;1.40;1.25;;;;;;;;;;4991498;28;20036;-70
2022/09/15 09:32:46;;;;;;;1.63;1.27;;;;;;;;;;4983105;28;20439;-68
2022/09/15 09:35:33;;;;;;;1.50;1.27;;;;;;;;;;4990874;28;20363;-69
2022/09/15 09:38:01;;;;;;;2.25;1.27;;;;;;;;;;4990872;28;20029;-69
2022/09/15 09:40:27;;;;;;;1.83;1.50;;;;;;;;;;4991293;28;20047;-69
2022/09/15 09:42:53;;;;;;;1.45;1.05;;;;;;;;;;5008429;28;20028;-69
2022/09/15 09:45:18;;;;;;;2.13;1.40;;;;;;;;;;5008867;28;20439;-69
2022/09/15 09:47:45;;;;;;;1.42;1.23;;;;;;;;;;4990802;28;20527;-69
2022/09/15 09:50:46;;;;;;;1.50;1.13;;;;;;;;;;5008534;28;20413;-69
2022/09/15 09:53:32;;;;;;;1.45;1.15;;;;;;;;;;4992028;28;20526;-69
2022/09/15 09:56:23;;;;;;;1.13;1.02;;;;;;;;;;5009436;28;20028;-69
2022/09/15 09:58:48;;;;;;;1.38;1.10;;;;;;;;;;4990343;28;20383;-69
2022/09/15 10:01:16;;;;;;;3.20;1.10;;;;;;;;;;5008294;28;20387;-69
2022/09/15 10:03:42;;;;;;;1.85;1.30;;;;;;;;;;4990441;28;20443;-69
2022/09/15 10:06:15;;;;;;;1.38;0.90;;;;;;;;;;4990769;28;20331;-69
2022/09/15 10:08:51;;;;;;;1.13;1.02;;;;;;;;;;4991493;28;20443;-69
2022/09/15 10:11:16;;;;;;;1.98;0.93;;;;;;;;;;5008324;28;20055;-69
2022/09/15 10:13:51;;;;;;;1.48;1.10;;;;;;;;;;4994600;28;20462;-69
2022/09/15 10:16:17;;;;;;;1.38;1.05;;;;;;;;;;5009899;28;20374;-68
2022/09/15 10:18:43;;;;;;;0.93;0.90;;;;;;;;;;5009700;28;20434;-68
2022/09/15 10:21:09;;;;;;;1.00;0.90;;;;;;;;;;5027985;28;20339;-69
2022/09/15 10:23:35;;;;;;;1.83;1.23;;;;;;;;;;5010197;28;20423;-68
2022/09/15 10:26:22;;;;;;;1.02;0.88;;;;;;;;;;5009668;28;20453;-69
2022/09/15 10:29:15;;;;;;;1.25;0.88;;;;;;;;;;5010666;28;20032;-68
2022/09/15 10:31:42;;;;;;;1.90;1.00;;;;;;;;;;5027879;28;20366;-68
2022/09/15 10:34:37;;;;;;;1.88;1.10;;;;;;;;;;5028198;28;20430;-69
2022/09/15 10:37:41;;;;;;;0.93;0.80;;;;;;;;;;4993197;28;20484;-69
2022/09/15 10:40:15;;;;;;;1.20;0.85;;;;;;;;;;4989765;28;20471;-68
2022/09/15 10:42:51;;;;;;;2.03;1.10;;;;;;;;;;5009379;28;20443;-68
2022/09/15 10:45:44;;;;;;;2.20;0.98;;;;;;;;;;4994828;28;20421;-69
2022/09/15 10:48:24;;;;;;;1.75;1.15;;;;;;;;;;4984660;28;20052;-69
2022/09/15 10:51:01;;;;;;;1.33;0.90;;;;;;;;;;5009226;28;20489;-69
2022/09/15 10:53:40;;;;;;;1.30;0.90;;;;;;;;;;5009293;28;20023;-69
2022/09/15 10:56:20;;;;;;;2.03;1.10;;;;;;;;;;5008836;28;20501;-69
2022/09/15 10:59:09;;;;;;;1.80;0.93;;;;;;;;;;5009176;28;20343;-68
2022/09/15 11:02:09;;;;;;;2.38;1.60;;;;;;;;;;5009262;28;20032;-69
2022/09/15 11:04:47;;;;;;;1.30;0.93;;;;;;;;;;5028139;28;20473;-68
2022/09/15 11:07:41;;;;;;;2.20;1.20;;;;;;;;;;5009106;28;20518;-69
2022/09/15 11:10:30;;;;;;;1.05;0.93;;;;;;;;;;5027180;28;20040;-69
2022/09/15 11:13:15;;;;;;;2.53;1.52;;;;;;;;;;5027255;28;20347;-68
2022/09/15 11:15:50;;;;;;;1.73;1.05;;;;;;;;;;5026801;28;20471;-68
2022/09/15 11:18:33;;;;;;;1.10;1.00;;;;;;;;;;5028955;28;20032;-68
2022/09/15 11:21:06;;;;;;;1.33;0.95;;;;;;;;;;5008960;28;20386;-68
2022/09/15 11:23:44;;;;;;;1.38;1.15;;;;;;;;;;5009081;28;20405;-69
2022/09/15 11:26:10;;;;;;;;;;;;;;;;;;5027453;28;20380;-69
2022/09/15 11:28:39;;;;;;;1.40;1.00;;;;;;;;;;5027770;28;20237;-69
2022/09/15 11:31:29;;;;;;;2.10;1.10;;;;;;;;;;5009098;28;20533;-69
2022/09/15 11:33:58;;;;;;;1.20;1.00;;;;;;;;;;5009019;28;20500;-68
2022/09/15 11:36:33;;;;;;;3.45;1.30;;;;;;;;;;5027596;28;20351;-68
2022/09/15 11:39:06;;;;;;;1.65;1.17;;;;;;;;;;5029216;28;20431;-68
2022/09/15 11:41:42;;;;;;;3.22;1.77;;;;;;;;;;5009190;28;20430;-68
2022/09/15 11:44:24;;;;;;;4.63;1.45;;;;;;;;;;5008948;28;20470;-68
2022/09/15 11:47:17;;;;;;;1.00;0.70;;;;;;;;;;5009738;28;20020;-68
2022/09/15 11:49:54;;;;;;;2.47;1.20;;;;;;;;;;5026836;28;20512;-68
2022/09/15 11:52:35;;;;;;;1.52;1.27;;;;;;;;;;5008669;28;20390;-68
2022/09/15 11:55:15;;;;;;;1.45;1.27;;;;;;;;;;5026873;28;20378;-68
2022/09/15 11:57:45;;;;;;;1.92;1.40;;;;;;;;;;5026823;28;20388;-68
2022/09/15 12:00:12;;;;;;;1.85;1.08;;;;;;;;;;5008737;28;20430;-68
2022/09/15 12:02:51;;;;;;;1.50;1.13;;;;;;;;;;5026904;28;20332;-68
2022/09/15 12:05:23;;;;;;;1.20;1.10;;;;;;;;;;5008667;28;20028;-68
2022/09/15 12:08:38;;;;;;;2.35;1.30;;;;;;;;;;5012313;28;20123;-68
2022/09/15 12:11:11;;;;;;;2.65;1.10;;;;;;;;;;4932613;28;20353;-68
2022/09/15 12:13:39;;;;;;;5.28;1.20;;;;;;;;;;5023957;28;20091;-68
2022/09/15 12:16:05;;;;;;;1.65;1.20;;;;;;;;;;5012090;28;20036;-68
2022/09/15 12:18:41;;;;;;;1.05;0.80;;;;;;;;;;5011934;28;20540;-68
2022/09/15 12:21:25;;;;;;;1.92;1.25;;;;;;;;;;5012270;28;20374;-68
2022/09/15 12:24:01;;;;;;;1.98;1.13;;;;;;;;;;5032349;28;20506;-68
2022/09/15 12:26:27;;;;;;;1.50;1.08;;;;;;;;;;4993033;28;20347;-67
2022/09/15 12:28:53;;;;;;;1.67;1.25;;;;;;;;;;5030320;28;20430;-67
2022/09/15 12:31:22;;;;;;;2.92;1.30;;;;;;;;;;5030244;28;20512;-68
2022/09/15 12:33:55;;;;;;;1.40;1.23;;;;;;;;;;5030120;28;20055;-68
2022/09/15 12:36:33;;;;;;;2.05;1.10;;;;;;;;;;5029968;28;20343;-67
2022/09/15 12:38:59;;;;;;;1.58;1.10;;;;;;;;;;5030049;28;20032;-67
2022/09/15 12:41:25;;;;;;;1.55;1.17;;;;;;;;;;4995310;28;20335;-68
2022/09/15 12:43:52;;;;;;;1.95;1.13;;;;;;;;;;5011743;28;20339;-67
2022/09/15 12:46:17;;;;;;;2.50;1.30;;;;;;;;;;5012136;28;20377;-67
2022/09/15 12:48:43;;;;;;;1.55;1.27;;;;;;;;;;5011697;28;20347;-72
2022/09/15 12:51:09;;;;;;;2.17;1.50;;;;;;;;;;5029928;28;20316;-68
2022/09/15 12:53:47;;;;;;;2.55;1.23;;;;;;;;;;5012125;28;20326;-67
2022/09/15 12:56:22;;;;;;;2.45;1.30;;;;;;;;;;4994886;28;20328;-68
2022/09/15 12:58:48;;;;;;;5.05;1.48;;;;;;;;;;5011624;28;20382;-67
2022/09/15 13:01:16;;;;;;;2.22;1.48;;;;;;;;;;5011634;28;20370;-67
2022/09/15 13:03:42;;;;;;;2.10;1.35;;;;;;;;;;5011832;28;20308;-68
2022/09/15 13:06:19;;;;;;;1.25;1.05;;;;;;;;;;5029722;28;20059;-68
2022/09/15 13:08:45;;;;;;;1.75;1.50;;;;;;;;;;5011106;28;20418;-69
2022/09/15 13:11:14;;;;;;;1.75;1.17;;;;;;;;;;5011862;28;20369;-67
2022/09/15 13:13:39;;;;;;;2.47;1.50;;;;;;;;;;5011199;28;20374;-67
2022/09/15 13:16:14;;;;;;;2.47;1.67;;;;;;;;;;5029849;28;20358;-68
2022/09/15 13:18:41;;;;;;;2.03;1.50;;;;;;;;;;5010908;28;20442;-68
2022/09/15 13:21:11;;;;;;;3.45;1.75;;;;;;;;;;5029106;28;20381;-67
2022/09/15 13:23:40;;;;;;;2.67;1.23;;;;;;;;;;5029622;28;20476;-67
2022/09/15 13:26:08;;;;;;;3.97;1.70;;;;;;;;;;5011684;28;20076;-67
2022/09/15 13:28:34;;;;;;;2.95;1.55;;;;;;;;;;5010785;28;20342;-67
2022/09/15 13:31:22;;;;;;;3.65;1.50;;;;;;;;;;5010862;28;20051;-67
2022/09/15 13:34:02;;;;;;;2.10;1.42;;;;;;;;;;5010979;28;20463;-67
2022/09/15 13:36:31;;;;;;;2.20;1.55;;;;;;;;;;5011323;28;20365;-67
2022/09/15 13:39:05;;;;;;;1.85;1.40;;;;;;;;;;5028742;28;20535;-67
2022/09/15 13:41:58;;;;;;;3.00;1.80;;;;;;;;;;5028778;28;20111;-67
2022/09/15 13:44:26;;;;;;;4.13;1.58;;;;;;;;;;5010545;28;20355;-67
2022/09/15 13:46:58;;;;;;;2.50;1.70;;;;;;;;;;5028720;28;20478;-68
2022/09/15 13:49:42;;;;;;;2.28;1.60;;;;;;;;;;5010335;28;20430;-67
2022/09/15 13:52:17;;;;;;;3.28;1.65;;;;;;;;;;5028590;28;20367;-68
2022/09/15 13:55:15;;;;;;;2.42;1.77;;;;;;;;;;5028601;28;20040;-68
2022/09/15 13:57:43;;;;;;;2.10;1.45;;;;;;;;;;5022812;28;20532;-67
2022/09/15 14:00:14;;;;;;;2.55;1.60;;;;;;;;;;5010134;28;20457;-67
2022/09/15 14:02:45;;;;;;;7.38;1.80;;;;;;;;;;5010660;28;20050;-67
2022/09/15 14:05:10;;;;;;;2.08;1.55;;;;;;;;;;5028288;28;20311;-68
2022/09/15 14:07:36;;;;;;;2.50;1.77;;;;;;;;;;4993445;28;20343;-68
2022/09/15 14:10:01;;;;;;;3.10;1.88;;;;;;;;;;5009834;28;20475;-68
2022/09/15 14:12:27;;;;;;;3.03;1.80;;;;;;;;;;5009925;28;20522;-68
2022/09/15 14:14:56;;;;;;;1.98;1.45;;;;;;;;;;4982229;28;20471;-68
2022/09/15 14:17:25;;;;;;;2.35;1.58;;;;;;;;;;4990242;28;20526;-67
2022/09/15 14:19:52;;;;;;;;;;;;;;;;;;5008962;28;20430;-68
2022/09/15 14:22:24;;;;;;;2.08;1.60;;;;;;;;;;4990334;28;20320;-68
2022/09/15 14:24:50;;;;;;;3.25;2.35;;;;;;;;;;5007754;28;20116;-68
2022/09/15 14:27:22;;;;;;;4.22;2.53;;;;;;;;;;4989979;28;20494;-68
2022/09/15 14:29:53;;;;;;;8.52;2.75;;;;;;;;;;5007072;28;20462;-68
2022/09/15 14:32:19;;;;;;;3.50;2.47;;;;;;;;;;4990369;28;20317;-67
2022/09/15 14:34:44;;;;;;;3.80;2.75;;;;;;;;;;5007921;28;20380;-67
2022/09/15 14:37:13;;;;;;;5.30;2.63;;;;;;;;;;4989628;28;20511;-68
2022/09/15 14:39:39;;;;;;;3.38;2.22;;;;;;;;;;5008155;28;20317;-68
2022/09/15 14:42:31;;;;;;;4.93;2.22;;;;;;;;;;5007753;28;20032;-68
2022/09/15 14:45:09;;;;;;;3.33;2.25;;;;;;;;;;4990616;28;20485;-68
2022/09/15 14:47:36;;;;;;;4.00;2.50;;;;;;;;;;5007904;28;20435;-68
2022/09/15 14:50:16;;;;;;;6.03;2.90;;;;;;;;;;5007855;28;20482;-68
2022/09/15 14:52:53;;;;;;;5.53;2.50;;;;;;;;;;4990778;28;20362;-68
2022/09/15 14:55:27;;;;;;;4.35;2.20;;;;;;;;;;4989807;28;20427;-69
2022/09/15 14:57:57;;;;;;;3.88;2.55;;;;;;;;;;4989509;28;20067;-68
2022/09/15 15:00:27;;;;;;;3.75;2.20;;;;;;;;;;5008448;28;20075;-68
2022/09/15 15:02:55;;;;;;;3.17;2.40;;;;;;;;;;4989704;28;20424;-68
2022/09/15 15:05:24;;;;;;;2.92;2.30;;;;;;;;;;5008589;28;20459;-68
2022/09/15 15:07:50;;;;;;;4.43;2.15;;;;;;;;;;4989341;28;20148;-69
2022/09/15 15:10:21;;;;;;;3.47;2.13;;;;;;;;;;4972724;28;20028;-69